createdAt,value
2023-01-19T00:00:18.363Z,-4.84
2023-01-19T00:02:53.027Z,-5.12
2023-01-19T00:05:25.879Z,-4.80
2023-01-19T00:08:14.725Z,-5.10
2023-01-19T00:10:51.146Z,-5.45
2023-01-19T00:13:24.063Z,-5.63
2023-01-19T00:15:57.334Z,-5.53
2023-01-19T00:18:31.515Z,-5.62
2023-01-19T00:21:04.323Z,-5.33
2023-01-19T00:23:37.112Z,-5.08
2023-01-19T00:26:10.673Z,-5.33
2023-01-19T00:28:43.776Z,-4.91
2023-01-19T00:31:17.296Z,-5.17
2023-01-19T00:33:52.838Z,-4.92
2023-01-19T00:36:25.786Z,-4.74
2023-01-19T00:38:58.656Z,-4.64
2023-01-19T00:41:48.964Z,-5.30
2023-01-19T00:44:21.756Z,-5.31
2023-01-19T00:46:54.501Z,-4.79
2023-01-19T00:49:28.662Z,-5.34
2023-01-19T00:52:01.526Z,-5.70
2023-01-19T00:54:34.442Z,-5.29
2023-01-19T00:57:07.447Z,-4.86
2023-01-19T00:59:40.304Z,-4.89
2023-01-19T01:02:13.368Z,-4.95
2023-01-19T01:04:47.703Z,-4.45
2023-01-19T01:07:20.500Z,-4.73
2023-01-19T01:09:53.500Z,-5.02
2023-01-19T01:12:26.718Z,-4.96
2023-01-19T01:14:59.573Z,-4.68
2023-01-19T01:17:32.380Z,-4.37
2023-01-19T01:20:07.386Z,-4.41
2023-01-19T01:22:40.758Z,-4.39
2023-01-19T01:25:15.032Z,-4.24
2023-01-19T01:27:47.825Z,-4.10
2023-01-19T01:30:21.283Z,-4.14
2023-01-19T01:32:54.067Z,-4.07
2023-01-19T01:35:28.402Z,-4.15
2023-01-19T01:38:01.915Z,-4.04
2023-01-19T01:40:34.752Z,-4.12
2023-01-19T01:43:12.463Z,-4.02
2023-01-19T01:45:46.303Z,-4.02
2023-01-19T01:48:23.375Z,-4.17
2023-01-19T01:51:19.088Z,-5.07
2023-01-19T01:54:00.807Z,-4.95
2023-01-19T01:56:36.796Z,-5.84
2023-01-19T01:59:26.091Z,-4.79
2023-01-19T02:02:20.313Z,-4.50
2023-01-19T02:04:56.802Z,-4.31
2023-01-19T02:07:56.675Z,-4.24
2023-01-19T02:10:46.998Z,-4.30
2023-01-19T02:13:23.137Z,-3.99
2023-01-19T02:15:58.455Z,-4.02
2023-01-19T02:18:33.539Z,-3.68
2023-01-19T02:21:13.422Z,-4.03
2023-01-19T02:23:49.606Z,-4.10
2023-01-19T02:26:24.468Z,-3.90
2023-01-19T02:29:00.712Z,-4.05
2023-01-19T02:31:35.283Z,-3.76
2023-01-19T02:34:10.560Z,-3.67
2023-01-19T02:36:49.215Z,-3.61
2023-01-19T02:39:29.456Z,-3.89
2023-01-19T02:42:05.659Z,-3.79
2023-01-19T02:44:40.659Z,-3.78
2023-01-19T02:47:14.152Z,-4.23
2023-01-19T02:49:55.638Z,-4.15
2023-01-19T02:52:29.392Z,-4.01
2023-01-19T02:55:15.307Z,-3.94
2023-01-19T02:58:01.738Z,-3.93
2023-01-19T03:00:41.562Z,-3.90
2023-01-19T03:03:27.237Z,-3.81
2023-01-19T03:06:07.455Z,-3.71
2023-01-19T03:08:47.465Z,-3.64
2023-01-19T03:11:21.844Z,-3.82
2023-01-19T03:14:00.958Z,-3.80
2023-01-19T03:16:39.599Z,-3.85
2023-01-19T03:19:18.851Z,-3.99
2023-01-19T03:21:57.985Z,-3.71
2023-01-19T03:24:36.325Z,-3.66
2023-01-19T03:27:14.797Z,-3.76
2023-01-19T03:29:52.298Z,-3.91
2023-01-19T03:32:30.642Z,-3.96
2023-01-19T03:35:09.605Z,-3.92
2023-01-19T03:37:46.064Z,-3.70
2023-01-19T03:40:19.155Z,-3.44
2023-01-19T03:42:53.928Z,-3.41
2023-01-19T03:45:27.636Z,-3.63
2023-01-19T03:48:00.836Z,-4.35
2023-01-19T03:50:33.922Z,-3.83
2023-01-19T03:53:11.758Z,-3.74
2023-01-19T03:55:47.935Z,-3.62
2023-01-19T03:58:23.100Z,-3.50
2023-01-19T04:00:55.924Z,-3.55
2023-01-19T04:03:29.058Z,-3.66
2023-01-19T04:06:02.101Z,-3.76
2023-01-19T04:08:34.995Z,-3.75
2023-01-19T04:11:08.809Z,-3.45
2023-01-19T04:13:43.727Z,-3.33
2023-01-19T04:16:20.172Z,-3.37
2023-01-19T04:18:53.462Z,-3.36
2023-01-19T04:21:26.486Z,-3.72
2023-01-19T04:23:59.709Z,-3.58
2023-01-19T04:26:32.504Z,-3.66
2023-01-19T04:29:06.758Z,-3.92
2023-01-19T04:31:39.628Z,-3.71
2023-01-19T04:34:12.517Z,-3.76
2023-01-19T04:36:46.739Z,-3.77
2023-01-19T04:39:19.515Z,-3.72
2023-01-19T04:41:52.999Z,-3.97
2023-01-19T04:44:27.613Z,-3.96
2023-01-19T04:47:01.602Z,-3.89
2023-01-19T04:49:37.620Z,-3.80
2023-01-19T04:52:10.414Z,-4.07
2023-01-19T04:54:43.193Z,-3.81
2023-01-19T04:57:16.061Z,-3.68
2023-01-19T04:59:50.197Z,-3.74
2023-01-19T05:02:23.804Z,-3.80
2023-01-19T05:04:56.684Z,-3.40
2023-01-19T05:07:29.605Z,-3.66
2023-01-19T05:10:02.399Z,-3.41
2023-01-19T05:12:35.206Z,-3.22
2023-01-19T05:15:13.451Z,-3.19
2023-01-19T05:17:46.643Z,-3.19
2023-01-19T05:20:19.931Z,-3.23
2023-01-19T05:22:53.517Z,-3.32
2023-01-19T05:25:26.482Z,-3.11
2023-01-19T05:27:59.383Z,-3.24
2023-01-19T05:30:33.742Z,-2.94
2023-01-19T05:33:06.803Z,-3.26
2023-01-19T05:35:39.705Z,-3.00
2023-01-19T05:38:13.603Z,-3.16
2023-01-19T05:40:47.543Z,-2.84
2023-01-19T05:43:20.417Z,-2.87
2023-01-19T05:45:54.618Z,-2.81
2023-01-19T05:48:27.464Z,-3.49
2023-01-19T05:51:01.486Z,-3.38
2023-01-19T05:53:34.446Z,-3.48
2023-01-19T05:56:09.851Z,-3.46
2023-01-19T05:58:42.818Z,-3.37
2023-01-19T06:01:17.220Z,-3.56
2023-01-19T06:03:50.162Z,-3.46
2023-01-19T06:06:23.649Z,-3.25
2023-01-19T06:08:56.527Z,-3.24
2023-01-19T06:11:29.438Z,-3.13
2023-01-19T06:14:02.627Z,-3.27
2023-01-19T06:16:36.822Z,-3.29
2023-01-19T06:19:09.808Z,-3.01
2023-01-19T06:21:49.448Z,-3.08
2023-01-19T06:24:23.172Z,-3.02
2023-01-19T06:26:56.658Z,-3.11
2023-01-19T06:29:29.592Z,-2.80
2023-01-19T06:32:04.033Z,-3.27
2023-01-19T06:34:36.930Z,-3.34
2023-01-19T06:37:16.430Z,-2.98
2023-01-19T06:39:49.527Z,-3.00
2023-01-19T06:42:22.507Z,-3.08
2023-01-19T06:44:55.373Z,-2.99
2023-01-19T06:47:29.595Z,-3.15
2023-01-19T06:50:03.471Z,-2.85
2023-01-19T06:52:42.523Z,-3.02
2023-01-19T06:55:16.253Z,-3.17
2023-01-19T06:57:49.186Z,-3.06
2023-01-19T07:00:22.453Z,-3.21
2023-01-19T07:02:56.762Z,-3.16
2023-01-19T07:05:29.692Z,-2.98
2023-01-19T07:08:03.327Z,-2.77
2023-01-19T07:11:24.733Z,-2.59
2023-01-19T07:13:30.161Z,-2.62
2023-01-19T07:16:07.358Z,-2.54
2023-01-19T07:18:42.795Z,-2.45
2023-01-19T07:21:15.725Z,-2.32
2023-01-19T07:23:49.743Z,-2.25
2023-01-19T07:26:25.146Z,-2.15
2023-01-19T07:28:58.237Z,-2.06
2023-01-19T07:31:31.475Z,-2.12
2023-01-19T07:34:07.215Z,-2.13
2023-01-19T07:36:40.276Z,-2.08
2023-01-19T07:39:13.655Z,-2.04
2023-01-19T07:41:49.302Z,-2.10
2023-01-19T07:44:22.303Z,-2.07
2023-01-19T07:46:55.482Z,-2.12
2023-01-19T07:49:30.061Z,-2.03
2023-01-19T07:52:03.136Z,-1.96
2023-01-19T07:54:36.284Z,-1.85
2023-01-19T07:57:09.559Z,-1.91
2023-01-19T07:59:42.653Z,-1.85
2023-01-19T08:02:17.263Z,-1.52
2023-01-19T08:04:52.430Z,-1.66
2023-01-19T08:07:25.818Z,-1.38
2023-01-19T08:09:58.950Z,-1.42
2023-01-19T08:12:32.177Z,-1.37
2023-01-19T08:15:06.622Z,-1.37
2023-01-19T08:17:39.853Z,-1.34
2023-01-19T08:20:15.477Z,-1.02
2023-01-19T08:22:48.861Z,-0.95
2023-01-19T08:25:21.883Z,-1.09
2023-01-19T08:27:56.638Z,-1.05
2023-01-19T08:30:30.557Z,-1.20
2023-01-19T08:33:08.347Z,-0.98
2023-01-19T08:35:45.650Z,-0.73
2023-01-19T08:38:19.064Z,-0.45
2023-01-19T08:40:52.347Z,-0.48
2023-01-19T08:43:26.034Z,-0.28
2023-01-19T08:45:59.235Z,-0.65
2023-01-19T08:48:32.842Z,-0.21
2023-01-19T08:51:07.894Z,-0.35
2023-01-19T08:53:41.942Z,-0.34
2023-01-19T08:56:15.425Z,-0.11
2023-01-19T08:58:59.438Z,-0.37
2023-01-19T09:01:41.560Z,0.00
2023-01-19T09:04:15.350Z,0.05
2023-01-19T09:06:50.441Z,0.41
2023-01-19T09:09:23.801Z,0.34
2023-01-19T09:11:57.056Z,0.21
2023-01-19T09:14:30.426Z,0.52
2023-01-19T09:17:35.438Z,0.61
2023-01-19T09:20:28.617Z,0.51
2023-01-19T09:23:06.640Z,0.29
2023-01-19T09:25:40.391Z,0.17
2023-01-19T09:28:29.598Z,0.30
2023-01-19T09:31:07.365Z,0.28
2023-01-19T09:34:01.643Z,0.52
2023-01-19T09:36:36.865Z,0.73
2023-01-19T09:39:12.063Z,0.83
2023-01-19T09:41:50.498Z,0.80
2023-01-19T09:44:31.484Z,1.17
2023-01-19T09:47:15.633Z,0.77
2023-01-19T09:49:53.923Z,0.82
2023-01-19T09:52:27.756Z,0.99
2023-01-19T09:56:09.103Z,1.12
2023-01-19T09:58:48.024Z,1.48
2023-01-19T10:01:39.275Z,0.82
2023-01-19T10:04:30.856Z,0.64
2023-01-19T10:07:24.761Z,0.88
2023-01-19T10:10:15.189Z,1.08
2023-01-19T10:13:01.593Z,1.21
2023-01-19T10:15:47.124Z,1.38
2023-01-19T10:18:25.417Z,1.39
2023-01-19T10:21:05.953Z,1.16
2023-01-19T10:23:44.986Z,1.24
2023-01-19T10:26:23.489Z,1.16
2023-01-19T10:29:03.707Z,1.58
2023-01-19T10:31:40.925Z,1.23
2023-01-19T10:34:20.970Z,1.11
2023-01-19T10:37:00.402Z,1.00
2023-01-19T10:39:38.514Z,1.22
2023-01-19T10:42:15.933Z,1.02
2023-01-19T10:44:55.432Z,1.12
2023-01-19T10:47:35.381Z,1.29
2023-01-19T10:50:25.018Z,1.26
2023-01-19T10:53:01.109Z,1.17
2023-01-19T10:55:38.254Z,1.35
2023-01-19T10:58:30.365Z,1.31
2023-01-19T11:01:16.082Z,1.01
2023-01-19T11:03:49.384Z,1.30
2023-01-19T11:06:26.629Z,1.23
2023-01-19T11:09:16.874Z,1.14
2023-01-19T11:11:52.465Z,1.26
2023-01-19T11:14:26.943Z,1.13
2023-01-19T11:17:01.385Z,1.66
2023-01-19T11:19:35.159Z,1.23
2023-01-19T11:22:21.635Z,0.90
2023-01-19T11:24:59.392Z,1.26
2023-01-19T11:27:35.634Z,1.37
2023-01-19T11:30:18.945Z,1.50
2023-01-19T11:32:53.691Z,1.61
2023-01-19T11:35:34.667Z,1.42
2023-01-19T11:38:19.207Z,1.56
2023-01-19T11:40:55.206Z,1.47
2023-01-19T11:43:43.546Z,1.59
2023-01-19T11:46:23.857Z,1.66
2023-01-19T11:49:03.992Z,1.22
2023-01-19T11:51:41.270Z,1.43
2023-01-19T11:54:20.930Z,1.56
2023-01-19T11:56:55.554Z,1.71
2023-01-19T11:59:29.140Z,1.97
2023-01-19T12:02:11.352Z,2.11
2023-01-19T12:04:48.058Z,2.53
2023-01-19T12:07:27.063Z,3.15
2023-01-19T12:10:07.304Z,2.75
2023-01-19T12:12:41.352Z,2.83
2023-01-19T12:15:25.201Z,2.59
2023-01-19T12:18:02.093Z,2.12
2023-01-19T12:20:40.630Z,2.56
2023-01-19T12:23:23.774Z,2.37
2023-01-19T12:26:09.201Z,2.39
2023-01-19T12:28:45.582Z,2.31
2023-01-19T12:31:20.584Z,1.99
2023-01-19T12:33:54.044Z,2.02
2023-01-19T12:36:39.652Z,1.44
2023-01-19T12:39:18.432Z,1.82
2023-01-19T12:42:06.543Z,1.66
2023-01-19T12:44:39.843Z,1.67
2023-01-19T12:47:22.844Z,1.85
2023-01-19T12:50:00.849Z,1.59
2023-01-19T12:52:40.448Z,1.75
2023-01-19T12:55:21.902Z,1.34
2023-01-19T12:58:00.829Z,1.49
2023-01-19T13:00:36.312Z,1.37
2023-01-19T13:03:43.990Z,1.79
2023-01-19T13:06:16.785Z,1.59
2023-01-19T13:09:01.675Z,1.89
2023-01-19T13:11:34.844Z,1.95
2023-01-19T13:14:36.951Z,1.75
2023-01-19T13:17:27.109Z,1.76
2023-01-19T13:20:11.575Z,1.64
2023-01-19T13:23:20.351Z,1.54
2023-01-19T13:26:07.581Z,1.74
2023-01-19T13:28:43.545Z,1.67
2023-01-19T13:31:17.530Z,1.71
2023-01-19T13:33:53.528Z,1.59
2023-01-19T13:36:30.956Z,1.42
2023-01-19T13:39:07.094Z,1.41
2023-01-19T13:41:42.594Z,1.43
2023-01-19T13:44:23.186Z,1.53
2023-01-19T13:46:59.341Z,1.59
2023-01-19T13:49:36.399Z,1.46
2023-01-19T13:52:15.371Z,1.65
2023-01-19T13:54:49.977Z,1.56
2023-01-19T13:57:28.927Z,1.34
2023-01-19T14:00:05.276Z,1.48
2023-01-19T14:02:53.940Z,1.65
2023-01-19T14:05:29.898Z,1.51
2023-01-19T14:08:04.876Z,1.47
2023-01-19T14:10:40.379Z,1.44
2023-01-19T14:13:17.894Z,1.31
2023-01-19T14:15:57.121Z,1.43
2023-01-19T14:18:31.521Z,1.36
2023-01-19T14:21:07.626Z,1.43
2023-01-19T14:23:43.808Z,1.26
2023-01-19T14:26:46.521Z,1.10
2023-01-19T14:29:25.885Z,1.17
2023-01-19T14:32:16.500Z,1.23
2023-01-19T14:34:51.157Z,1.14
2023-01-19T14:37:27.108Z,1.14
2023-01-19T14:40:04.736Z,1.20
2023-01-19T14:42:45.910Z,0.98
2023-01-19T14:45:23.773Z,1.00
2023-01-19T14:47:59.916Z,1.22
2023-01-19T14:50:37.198Z,1.16
2023-01-19T14:53:19.459Z,1.25
2023-01-19T14:55:55.599Z,1.26
2023-01-19T14:58:31.288Z,1.25
2023-01-19T15:01:06.393Z,1.21
2023-01-19T15:03:46.441Z,1.07
2023-01-19T15:06:21.471Z,1.09
2023-01-19T15:08:55.495Z,1.17
2023-01-19T15:11:32.324Z,1.01
2023-01-19T15:14:05.126Z,1.08
2023-01-19T15:16:39.328Z,1.23
2023-01-19T15:19:13.618Z,1.33
2023-01-19T15:21:48.611Z,0.99
2023-01-19T15:24:21.423Z,1.13
2023-01-19T15:26:54.213Z,1.23
2023-01-19T15:29:28.485Z,0.95
2023-01-19T15:32:03.884Z,1.06
2023-01-19T15:34:36.678Z,1.16
2023-01-19T15:37:09.522Z,1.13
2023-01-19T15:39:42.364Z,1.00
2023-01-19T15:42:15.518Z,1.26
2023-01-19T15:44:48.513Z,1.24
2023-01-19T15:47:22.695Z,1.11
2023-01-19T15:49:55.558Z,1.07
2023-01-19T15:52:28.375Z,1.13
2023-01-19T15:55:01.081Z,1.13
2023-01-19T15:57:35.113Z,1.20
2023-01-19T16:00:08.810Z,1.00
2023-01-19T16:02:46.442Z,1.20
2023-01-19T16:05:19.315Z,1.04
2023-01-19T16:07:52.368Z,0.92
2023-01-19T16:10:26.310Z,0.90
2023-01-19T16:12:59.066Z,1.04
2023-01-19T16:15:32.312Z,0.98
2023-01-19T16:18:07.119Z,0.98
2023-01-19T16:20:40.107Z,0.84
2023-01-19T16:23:15.215Z,1.01
2023-01-19T16:25:57.271Z,1.04
2023-01-19T16:28:29.989Z,1.17
2023-01-19T16:31:03.375Z,1.02
2023-01-19T16:33:37.570Z,1.10
2023-01-19T16:36:32.109Z,1.19
2023-01-19T16:39:07.450Z,0.90
2023-01-19T16:41:40.784Z,1.19
2023-01-19T16:44:15.410Z,1.16
2023-01-19T16:46:50.096Z,1.39
2023-01-19T16:49:28.419Z,1.17
2023-01-19T16:52:01.758Z,1.27
2023-01-19T16:54:34.524Z,1.10
2023-01-19T16:57:07.331Z,1.13
2023-01-19T16:59:40.559Z,1.11
2023-01-19T17:02:13.500Z,1.00
2023-01-19T17:04:47.688Z,1.06
2023-01-19T17:07:20.453Z,1.30
2023-01-19T17:09:53.280Z,1.19
2023-01-19T17:12:26.014Z,1.27
2023-01-19T17:14:58.795Z,1.17
2023-01-19T17:17:31.584Z,1.18
2023-01-19T17:20:06.715Z,1.16
2023-01-19T17:22:39.451Z,1.27
2023-01-19T17:25:12.172Z,1.02
2023-01-19T17:27:44.919Z,1.24
2023-01-19T17:30:18.537Z,1.20
2023-01-19T17:32:51.277Z,1.12
2023-01-19T17:35:25.692Z,1.21
2023-01-19T17:37:58.507Z,0.94
2023-01-19T17:40:31.780Z,0.97
2023-01-19T17:43:04.806Z,1.13
2023-01-19T17:45:38.073Z,1.49
2023-01-19T17:48:10.857Z,1.22
2023-01-19T17:50:45.185Z,1.15
2023-01-19T17:53:17.925Z,1.57
2023-01-19T17:55:50.676Z,1.44
2023-01-19T17:58:24.201Z,1.59
2023-01-19T18:00:56.949Z,1.19
2023-01-19T18:03:29.709Z,1.11
2023-01-19T18:06:03.838Z,0.99
2023-01-19T18:08:39.410Z,1.54
2023-01-19T18:11:12.729Z,1.61
2023-01-19T18:13:46.676Z,1.27
2023-01-19T18:16:23.047Z,1.32
2023-01-19T18:18:57.382Z,1.11
2023-01-19T18:21:38.904Z,1.23
2023-01-19T18:24:11.636Z,1.28
2023-01-19T18:26:44.519Z,1.13
2023-01-19T18:29:20.333Z,0.79
2023-01-19T18:31:53.320Z,1.08
2023-01-19T18:34:26.108Z,0.91
2023-01-19T18:37:00.235Z,1.23
2023-01-19T18:39:33.271Z,1.25
2023-01-19T18:42:08.846Z,0.98
2023-01-19T18:44:41.767Z,1.13
2023-01-19T18:47:14.840Z,1.31
2023-01-19T18:49:47.712Z,1.37
2023-01-19T18:52:21.873Z,1.26
2023-01-19T18:54:54.586Z,1.12
2023-01-19T18:57:27.316Z,0.99
2023-01-19T19:00:00.125Z,1.25
2023-01-19T19:02:33.481Z,1.09
2023-01-19T19:05:07.050Z,1.18
2023-01-19T19:07:41.268Z,1.23
2023-01-19T19:10:14.802Z,1.01
2023-01-19T19:12:48.211Z,1.25
2023-01-19T19:15:21.042Z,1.17
2023-01-19T19:17:53.969Z,1.33
2023-01-19T19:20:26.854Z,1.26
2023-01-19T19:23:00.975Z,1.16
2023-01-19T19:25:34.258Z,1.30
2023-01-19T19:28:07.106Z,1.14
2023-01-19T19:30:41.121Z,1.07
2023-01-19T19:33:13.951Z,1.11
2023-01-19T19:35:48.074Z,0.94
2023-01-19T19:38:22.408Z,1.03
2023-01-19T19:40:57.315Z,1.43
2023-01-19T19:43:32.503Z,1.25
2023-01-19T19:46:07.575Z,1.39
2023-01-19T19:48:40.788Z,1.51
2023-01-19T19:51:19.445Z,1.31
2023-01-19T19:53:55.659Z,1.61
2023-01-19T19:56:30.003Z,1.26
2023-01-19T19:59:02.815Z,1.45
2023-01-19T20:01:35.858Z,1.57
2023-01-19T20:04:11.041Z,1.44
2023-01-19T20:06:45.065Z,1.40
2023-01-19T20:09:19.256Z,1.43
2023-01-19T20:11:52.314Z,1.57
2023-01-19T20:14:25.245Z,1.61
2023-01-19T20:16:58.003Z,1.40
2023-01-19T20:19:32.532Z,1.54
2023-01-19T20:22:05.480Z,1.49
2023-01-19T20:24:40.303Z,1.48
2023-01-19T20:27:13.238Z,1.63
2023-01-19T20:29:51.477Z,1.33
2023-01-19T20:32:25.107Z,1.12
2023-01-19T20:34:57.909Z,1.51
2023-01-19T20:37:30.803Z,1.47
2023-01-19T20:40:05.636Z,1.38
2023-01-19T20:42:41.330Z,1.32
2023-01-19T20:45:14.388Z,1.19
2023-01-19T20:47:47.411Z,1.47
2023-01-19T20:50:20.300Z,1.40
2023-01-19T20:52:53.132Z,1.12
2023-01-19T20:55:27.341Z,1.12
2023-01-19T20:58:00.168Z,1.49
2023-01-19T21:00:33.116Z,1.67
2023-01-19T21:03:05.909Z,1.24
2023-01-19T21:05:38.697Z,1.09
2023-01-19T21:08:13.279Z,1.41
2023-01-19T21:10:47.526Z,1.75
2023-01-19T21:13:20.316Z,1.59
2023-01-19T21:15:53.308Z,1.65
2023-01-19T21:18:27.877Z,1.17
2023-01-19T21:21:00.645Z,1.42
2023-01-19T21:23:33.407Z,1.71
2023-01-19T21:26:07.807Z,1.43
2023-01-19T21:28:41.015Z,1.34
2023-01-19T21:31:15.315Z,1.33
2023-01-19T21:33:49.165Z,1.38
2023-01-19T21:36:24.893Z,1.46
2023-01-19T21:39:00.743Z,1.38
2023-01-19T21:41:35.840Z,1.38
2023-01-19T21:44:08.950Z,1.34
2023-01-19T21:46:42.013Z,1.62
2023-01-19T21:49:18.743Z,1.71
2023-01-19T21:51:51.557Z,1.55
2023-01-19T21:54:24.302Z,1.60
2023-01-19T21:56:58.429Z,1.70
2023-01-19T21:59:31.214Z,1.67
2023-01-19T22:02:04.133Z,1.78
2023-01-19T22:04:36.994Z,1.10
2023-01-19T22:07:09.773Z,1.54
2023-01-19T22:09:42.607Z,1.61
2023-01-19T22:12:16.731Z,1.90
2023-01-19T22:14:49.512Z,1.74
2023-01-19T22:17:22.347Z,1.85
2023-01-19T22:19:55.113Z,1.64
2023-01-19T22:22:28.006Z,1.23
2023-01-19T22:25:00.806Z,1.19
2023-01-19T22:27:34.961Z,1.42
2023-01-19T22:30:10.445Z,1.50
2023-01-19T22:32:43.229Z,0.79
2023-01-19T22:35:16.400Z,1.44
2023-01-19T22:37:49.280Z,1.48
2023-01-19T22:40:22.075Z,1.07
2023-01-19T22:42:56.217Z,1.17
2023-01-19T22:45:28.969Z,0.97
2023-01-19T22:48:01.688Z,1.52
2023-01-19T22:50:36.093Z,1.51
2023-01-19T22:53:08.915Z,1.66
2023-01-19T22:55:41.680Z,1.71
2023-01-19T22:58:15.820Z,1.49
2023-01-19T23:00:48.592Z,1.63
2023-01-19T23:03:21.370Z,1.67
2023-01-19T23:05:54.276Z,1.62
2023-01-19T23:08:27.098Z,1.31
2023-01-19T23:11:00.105Z,1.49
2023-01-19T23:13:34.444Z,1.27
2023-01-19T23:16:08.657Z,1.60
2023-01-19T23:18:42.445Z,1.34
2023-01-19T23:21:17.410Z,1.48
2023-01-19T23:23:53.651Z,1.38
2023-01-19T23:26:26.801Z,1.55
2023-01-19T23:29:02.609Z,1.42
2023-01-19T23:31:37.650Z,1.43
2023-01-19T23:34:12.390Z,1.64
2023-01-19T23:36:45.600Z,1.54
2023-01-19T23:39:20.386Z,1.76
2023-01-19T23:41:53.350Z,1.65
2023-01-19T23:44:27.592Z,1.74
2023-01-19T23:47:00.506Z,1.66
2023-01-19T23:49:33.339Z,1.68
2023-01-19T23:52:06.135Z,1.65
2023-01-19T23:54:38.981Z,1.64
2023-01-19T23:57:11.792Z,1.43
2023-01-19T23:59:46.026Z,1.53
